createdAt,value
2018-08-10T16:45:26.491Z,26.05
2018-08-10T16:47:56.369Z,26.05
2018-08-10T16:50:26.132Z,25.98
2018-08-10T16:52:56.265Z,25.99
2018-08-10T16:55:26.028Z,25.98
2018-08-10T16:57:56.242Z,25.95
2018-08-10T17:00:26.227Z,25.89
2018-08-10T17:02:55.916Z,25.83
2018-08-10T17:05:25.999Z,25.81
2018-08-10T17:07:55.979Z,25.67
2018-08-10T17:10:27.704Z,25.58
2018-08-10T17:12:57.547Z,25.55
2018-08-10T17:15:27.071Z,25.53
2018-08-10T17:17:56.658Z,25.49
2018-08-10T17:20:26.210Z,25.52
2018-08-10T17:22:56.112Z,25.46
2018-08-10T17:25:25.790Z,25.44
2018-08-10T17:27:55.493Z,25.44
2018-08-10T17:30:25.838Z,25.46
2018-08-10T17:32:55.684Z,25.50
2018-08-10T17:35:25.904Z,25.43
2018-08-10T17:37:55.487Z,25.41
2018-08-10T17:40:25.079Z,25.38
2018-08-10T17:42:54.972Z,25.37
2018-08-10T17:45:24.966Z,25.35
2018-08-10T17:47:54.530Z,25.34
2018-08-10T17:50:24.568Z,25.31
2018-08-10T17:52:54.861Z,25.22
2018-08-10T17:55:25.011Z,25.19
2018-08-10T17:57:54.943Z,25.13
2018-08-10T18:00:26.690Z,25.02
2018-08-10T18:02:56.438Z,24.96
2018-08-10T18:05:26.338Z,24.93
2018-08-10T18:07:55.957Z,24.87
2018-08-10T18:10:25.894Z,24.80
2018-08-10T18:12:55.487Z,24.73
2018-08-10T18:16:07.155Z,24.68
2018-08-10T18:18:36.775Z,24.60
2018-08-10T18:21:06.342Z,24.51
2018-08-10T18:23:35.924Z,24.43
2018-08-10T18:26:05.695Z,24.34
2018-08-10T18:28:35.640Z,24.24
2018-08-10T18:31:05.459Z,24.20
2018-08-10T18:33:35.056Z,24.11
2018-08-10T18:36:04.730Z,24.03
2018-08-10T18:38:34.359Z,23.94
2018-08-10T18:41:04.012Z,23.87
2018-08-10T18:43:34.195Z,23.81
2018-08-10T18:46:03.875Z,23.74
2018-08-10T18:48:33.687Z,23.64
2018-08-10T18:51:03.706Z,23.53
2018-08-10T18:53:33.289Z,23.46
2018-08-10T18:56:02.920Z,23.40
2018-08-10T18:58:32.860Z,23.31
2018-08-10T19:01:02.519Z,23.19
2018-08-10T19:03:32.490Z,23.11
2018-08-10T19:06:02.425Z,23.02
2018-08-10T19:08:32.375Z,22.91
2018-08-10T19:11:02.414Z,22.83
2018-08-10T19:13:31.979Z,22.78
2018-08-10T19:16:01.639Z,22.70
2018-08-10T19:18:31.309Z,22.59
2018-08-10T19:21:01.263Z,22.51
2018-08-10T19:23:31.187Z,22.44
2018-08-10T19:26:01.012Z,22.32
2018-08-10T19:28:30.630Z,22.23
2018-08-10T19:31:00.201Z,22.16
2018-08-10T19:33:30.155Z,22.03
2018-08-10T19:35:59.759Z,21.94
2018-08-10T19:38:29.327Z,21.86
2018-08-10T19:40:58.880Z,21.82
2018-08-10T19:43:28.838Z,21.73
2018-08-10T19:45:58.389Z,21.69
2018-08-10T19:48:28.395Z,21.63
2018-08-10T19:50:58.137Z,21.58
2018-08-10T19:53:27.680Z,21.53
2018-08-10T19:55:57.334Z,21.50
2018-08-10T19:58:27.056Z,21.47
2018-08-10T20:00:56.657Z,21.41
2018-08-10T20:03:26.263Z,21.38
2018-08-10T20:05:56.283Z,21.29
2018-08-10T20:08:26.030Z,21.24
2018-08-10T20:11:01.062Z,21.20
2018-08-10T20:13:31.038Z,21.19
2018-08-10T20:16:00.777Z,21.19
2018-08-10T20:18:31.091Z,21.18
2018-08-10T20:21:00.985Z,21.12
2018-08-10T20:23:30.814Z,21.09
2018-08-10T20:26:00.426Z,21.09
2018-08-10T20:28:30.388Z,21.03
2018-08-10T20:31:00.160Z,20.96
2018-08-10T20:33:29.774Z,20.89
2018-08-10T20:35:59.765Z,20.87
2018-08-10T20:38:29.356Z,20.86
2018-08-10T20:40:59.285Z,20.86
2018-08-10T20:43:28.859Z,20.81
2018-08-10T20:45:58.896Z,20.72
2018-08-10T20:48:28.959Z,20.62
2018-08-10T20:50:58.847Z,20.53
2018-08-10T20:53:28.485Z,20.53
2018-08-10T20:55:58.489Z,20.50
2018-08-10T20:58:28.476Z,20.46
2018-08-10T21:00:58.039Z,20.45
2018-08-10T21:03:27.575Z,20.41
2018-08-10T21:05:57.376Z,20.37
2018-08-10T21:08:30.288Z,20.31
2018-08-10T21:11:00.402Z,20.26
2018-08-10T21:13:30.219Z,20.23
2018-08-10T21:16:00.348Z,20.18
2018-08-10T21:18:29.911Z,20.14
2018-08-10T21:20:59.839Z,20.10
2018-08-10T21:23:29.529Z,20.06
2018-08-10T21:25:59.067Z,20.06
2018-08-10T21:28:29.518Z,20.02
2018-08-10T21:30:59.083Z,20.01
2018-08-10T21:33:28.718Z,19.94
2018-08-10T21:35:58.256Z,19.89
2018-08-10T21:38:28.083Z,19.88
2018-08-10T21:40:57.590Z,19.84
2018-08-10T21:43:27.370Z,19.83
2018-08-10T21:45:57.024Z,19.81
2018-08-10T21:48:26.622Z,19.73
2018-08-10T21:50:56.775Z,19.66
2018-08-10T21:53:26.594Z,19.65
2018-08-10T21:55:56.378Z,19.61
2018-08-10T21:58:26.275Z,19.56
2018-08-10T22:01:02.792Z,19.52
2018-08-10T22:03:32.955Z,19.45
2018-08-10T22:06:02.860Z,19.42
2018-08-10T22:08:32.372Z,19.36
2018-08-10T22:11:02.451Z,19.34
2018-08-10T22:13:37.104Z,19.25
2018-08-10T22:16:11.859Z,19.21
2018-08-10T22:18:46.810Z,19.17
2018-08-10T22:21:16.681Z,19.12
2018-08-10T22:23:46.191Z,19.06
2018-08-10T22:26:15.976Z,19.00
2018-08-10T22:28:45.654Z,18.97
2018-08-10T22:31:15.595Z,18.86
2018-08-10T22:33:45.352Z,18.85
2018-08-10T22:36:14.918Z,18.79
2018-08-10T22:38:44.519Z,18.74
2018-08-10T22:41:15.289Z,18.71
2018-08-10T22:43:44.866Z,18.69
2018-08-10T22:46:14.989Z,18.67
2018-08-10T22:48:44.567Z,18.64
2018-08-10T22:51:14.363Z,18.63
2018-08-10T22:53:43.938Z,18.57
2018-08-10T22:56:13.450Z,18.53
2018-08-10T22:58:43.051Z,18.50
2018-08-10T23:01:12.582Z,18.51
2018-08-10T23:03:43.123Z,18.51
2018-08-10T23:06:13.039Z,18.48
2018-08-10T23:08:43.035Z,18.44
2018-08-10T23:11:12.655Z,18.38
2018-08-10T23:13:42.202Z,18.34
2018-08-10T23:16:11.778Z,18.34
2018-08-10T23:18:41.316Z,18.33
2018-08-10T23:21:11.238Z,18.33
2018-08-10T23:23:41.120Z,18.26
2018-08-10T23:26:10.662Z,18.24
2018-08-10T23:28:40.251Z,18.23
2018-08-10T23:31:09.796Z,18.21
2018-08-10T23:33:39.327Z,18.17
2018-08-10T23:36:09.196Z,18.11
2018-08-10T23:38:38.907Z,18.06
2018-08-10T23:41:08.762Z,18.02
2018-08-10T23:43:38.371Z,17.96
2018-08-10T23:46:08.403Z,17.89
2018-08-10T23:48:37.918Z,17.80
2018-08-10T23:51:07.619Z,17.75
2018-08-10T23:53:37.164Z,17.72
2018-08-10T23:56:07.871Z,17.70
2018-08-10T23:58:37.497Z,17.72
